»·PEaware :: QXE2394 KSEA-KMSO

QXE2394 :: KSEA-KMSO

FLIGHT INFORMATION

Flight Status: Arrived
Operator:
Horizon Air
More flights by this operator :: More flights under this callsign
Pilot: Trevor S. (2559)
Aircraft: DEHAVILLAND DASH 8 400
(DH8D)
More flights by this aircraft type
Origin: KSEA Seattle-Tacoma Intl
United States
Destination: KMSO Missoula Intl
United States
More flights between these airports :: More routes between these airports
Route: + / MLP256034 MSO
File this flight plan on PilotEdge
Remarks: Horizon Air
Altitude:
(Current/Filed)
250ft
Speed:
(Current/Filed)
345kts
Departed: 15-Dec-17 05:53 PM
Arrived: 15-Dec-17 07:09 PM
Distance/Time
Traveled:
337nm/1:15
Distance/Time
To Go:
Arrived

Flight Plot

Page will automatically refresh every two minutes.

Flight plan parsing failed; only flown route is shown


Map Options




Map Legend


Flown Route
Filed Route
Departure Airport
Arrival Airport
Navaid (VOR, NDB)
Fix

Horizontal Profiles

Position Reports

Time Latitude Longitude Heading Altitude Ground
Speed
15-Dec-17 17:27 47.445370 -122.304702 91 440ft 0kts
15-Dec-17 17:28 47.445370 -122.304702 91 440ft 0kts
15-Dec-17 17:29 47.445370 -122.304702 91 440ft 0kts
15-Dec-17 17:30 47.445370 -122.304702 91 440ft 0kts
15-Dec-17 17:31 47.445370 -122.304702 91 440ft 0kts
15-Dec-17 17:32 47.445370 -122.304702 91 440ft 0kts
15-Dec-17 17:33 47.445370 -122.304702 91 440ft 0kts
15-Dec-17 17:34 47.445370 -122.304702 91 440ft 0kts
15-Dec-17 17:35 47.445370 -122.304702 91 440ft 0kts
15-Dec-17 17:36 47.445370 -122.304702 91 440ft 0kts
15-Dec-17 17:37 47.445370 -122.304702 91 440ft 0kts
15-Dec-17 17:38 47.445370 -122.304702 91 440ft 0kts
15-Dec-17 17:39 47.445370 -122.304702 91 440ft 0kts
15-Dec-17 17:40 47.445370 -122.304702 91 440ft 0kts
15-Dec-17 17:41 47.445370 -122.304702 91 440ft 0kts
15-Dec-17 17:42 47.445370 -122.304702 91 440ft 0kts
15-Dec-17 17:43 47.445370 -122.304702 91 440ft 0kts
15-Dec-17 17:44 47.445370 -122.304702 91 440ft 0kts
15-Dec-17 17:45 47.445370 -122.304702 91 440ft 0kts
15-Dec-17 17:46 47.445370 -122.304702 91 440ft 0kts
15-Dec-17 17:47 47.445370 -122.304702 91 440ft 0kts
15-Dec-17 17:48 47.445370 -122.304702 91 440ft 0kts
15-Dec-17 17:49 47.445382 -122.305353 91 440ft 2kts
15-Dec-17 17:50 47.445144 -122.306008 1 440ft 0kts
15-Dec-17 17:51 47.445144 -122.306008 1 440ft 0kts
15-Dec-17 17:52 47.445144 -122.306008 1 440ft 0kts
15-Dec-17 17:53 47.445144 -122.306008 1 440ft 0kts
15-Dec-17 17:54 47.447512 -122.306139 0 440ft 17kts
15-Dec-17 17:55 47.450929 -122.306178 359 440ft 7kts
15-Dec-17 17:56 47.455598 -122.306160 1 440ft 21kts
15-Dec-17 17:57 47.460257 -122.306140 0 440ft 12kts
15-Dec-17 17:58 47.463424 -122.306535 288 440ft 11kts
15-Dec-17 17:59 47.457977 -122.307755 179 440ft 100kts
15-Dec-17 18:00 47.418830 -122.307122 179 2326ft 158kts
15-Dec-17 18:01 47.366114 -122.311324 181 2985ft 207kts
15-Dec-17 18:02 47.306958 -122.313870 164 4345ft 213kts
15-Dec-17 18:03 47.297506 -122.241831 70 7271ft 214kts
15-Dec-17 18:04 47.322106 -122.149883 74 8756ft 269kts
15-Dec-17 18:05 47.349029 -122.040611 73 10183ft 294kts
15-Dec-17 18:06 47.377280 -121.924284 70 11587ft 306kts
15-Dec-17 18:07 47.406555 -121.805436 66 13002ft 309kts
15-Dec-17 18:08 47.430075 -121.684005 86 14364ft 314kts
15-Dec-17 18:09 47.427079 -121.555326 88 15793ft 304kts
15-Dec-17 18:10 47.425885 -121.432146 88 17377ft 297kts
15-Dec-17 18:11 47.423823 -121.309926 90 18779ft 297kts
15-Dec-17 18:12 47.421589 -121.187478 90 20062ft 298kts
15-Dec-17 18:13 47.419431 -121.065357 90 21234ft 299kts
15-Dec-17 18:14 47.417163 -120.941281 90 22249ft 304kts
15-Dec-17 18:15 47.414672 -120.816095 90 23209ft 307kts
15-Dec-17 18:16 47.412153 -120.689258 91 24103ft 309kts
15-Dec-17 18:17 47.409757 -120.560751 93 24828ft 316kts
15-Dec-17 18:18 47.406055 -120.427909 93 25172ft 334kts
15-Dec-17 18:19 47.402622 -120.286374 92 25187ft 357kts
15-Dec-17 18:20 47.398773 -120.136534 93 25185ft 373kts
15-Dec-17 18:21 47.394664 -119.982612 93 25184ft 384kts
15-Dec-17 18:22 47.390169 -119.823761 93 25184ft 391kts
15-Dec-17 18:23 47.385407 -119.662897 93 25192ft 394kts
15-Dec-17 18:24 47.380372 -119.500617 93 25193ft 397kts
15-Dec-17 18:25 47.379606 -119.337965 86 25192ft 396kts
15-Dec-17 18:26 47.386981 -119.176269 87 25198ft 394kts
15-Dec-17 18:27 47.392906 -119.015048 89 25203ft 393kts
15-Dec-17 18:28 47.397600 -118.854166 89 25202ft 392kts
15-Dec-17 18:29 47.402540 -118.693012 89 25201ft 392kts
15-Dec-17 18:30 47.407480 -118.533121 89 25200ft 391kts
15-Dec-17 18:31 47.411947 -118.372549 89 25159ft 390kts
15-Dec-17 18:32 47.416487 -118.213357 88 25129ft 387kts
15-Dec-17 18:33 47.420679 -118.055331 89 25128ft 384kts
15-Dec-17 18:34 47.424543 -117.898292 89 25128ft 382kts
15-Dec-17 18:35 47.428248 -117.741467 89 25128ft 383kts
15-Dec-17 18:36 47.431720 -117.583631 89 25128ft 386kts
15-Dec-17 18:37 47.435028 -117.424963 89 25142ft 387kts
15-Dec-17 18:38 47.438092 -117.265963 89 25146ft 388kts
15-Dec-17 18:39 47.441028 -117.106290 90 25172ft 391kts
15-Dec-17 18:40 47.443622 -116.945244 90 25174ft 394kts
15-Dec-17 18:41 47.446089 -116.782724 90 25157ft 397kts
15-Dec-17 18:42 47.448345 -116.619636 90 25156ft 398kts
15-Dec-17 18:43 47.450356 -116.455983 90 25156ft 399kts
15-Dec-17 18:44 47.436711 -116.296030 114 25116ft 393kts
15-Dec-17 18:45 47.401231 -116.142693 113 25092ft 396kts
15-Dec-17 18:46 47.365940 -115.988292 113 25091ft 398kts
15-Dec-17 18:47 47.330298 -115.833527 114 25087ft 399kts
15-Dec-17 18:48 47.294325 -115.678305 114 25059ft 401kts
15-Dec-17 18:49 47.257946 -115.522201 114 24983ft 404kts
15-Dec-17 18:50 47.221049 -115.365878 114 24980ft 405kts
15-Dec-17 18:51 47.184258 -115.210987 115 24921ft 393kts
15-Dec-17 18:52 47.147677 -115.058711 115 23241ft 402kts
15-Dec-17 18:53 47.109779 -114.902672 115 21404ft 405kts
15-Dec-17 18:54 47.071480 -114.747801 114 19571ft 402kts
15-Dec-17 18:55 47.033459 -114.594745 112 17729ft 397kts
15-Dec-17 18:56 46.997765 -114.448167 112 15983ft 386kts
15-Dec-17 18:57 46.962386 -114.303520 113 14274ft 377kts
15-Dec-17 18:57 46.932906 -114.188492 111 12901ft 337kts
15-Dec-17 18:59 46.902512 -114.069834 120 11495ft 295kts
15-Dec-17 19:00 46.852149 -113.960611 126 10019ft 259kts
15-Dec-17 19:01 46.813876 -113.877022 128 8918ft 241kts
15-Dec-17 19:02 46.773080 -113.827516 160 8805ft 224kts
15-Dec-17 19:03 46.703439 -113.815491 194 8798ft 215kts
15-Dec-17 19:04 46.659030 -113.844841 219 8798ft 208kts
15-Dec-17 19:05 46.624363 -113.909793 247 8798ft 202kts
15-Dec-17 19:06 46.617627 -113.989410 279 8280ft 196kts
15-Dec-17 19:07 46.644549 -114.056842 316 7606ft 200kts
15-Dec-17 19:08 46.696992 -114.086927 345 6778ft 199kts
15-Dec-17 19:09 46.746345 -114.078176 10 6293ft 166kts
15-Dec-17 19:10 46.789905 -114.059570 30 5894ft 160kts
15-Dec-17 19:11 46.824482 -114.026382 37 5612ft 147kts
15-Dec-17 19:12 46.861934 -114.012514 341 5602ft 146kts
15-Dec-17 19:13 46.893528 -114.052171 310 4103ft 142kts
15-Dec-17 19:14 46.915520 -114.090532 310 3213ft 67kts
15-Dec-17 19:15 46.918233 -114.093805 37 3212ft 0kts
15-Dec-17 19:16 46.918622 -114.093367 37 3212ft 8kts
15-Dec-17 19:17 46.918308 -114.089707 38 3212ft 11kts
15-Dec-17 19:18 46.918545 -114.086653 128 3212ft 14kts
15-Dec-17 19:19 46.918452 -114.085430 131 3212ft 2kts
15-Dec-17 19:20 46.918388 -114.084931 84 3212ft 0kts
15-Dec-17 19:21 46.918388 -114.084931 84 3212ft 0kts

Navigation Log

Ident Type
Flight plan parsing failed, navigation log unavailable